Time;durP1;ratioP1;P1;durP2;ratioP2;P2;SDS_P1;SDS_P2;PMS_P1;PMS_P2;Temp;Humidity;BMP_temperature;BMP_pressure;BME280_temperature;BME280_humidity;BME280_pressure;Samples;Min_cycle;Max_cycle;Signal;HPM_P1;HPM_P2
2022/09/10 00:01:59;;;;;;;0.50;0.50;;;;;;;;;;5083288;28;20480;-72
2022/09/10 00:04:28;;;;;;;0.60;0.50;;;;;;;;;;5100094;28;20303;-72
2022/09/10 00:06:55;;;;;;;0.82;0.70;;;;;;;;;;5099995;28;20203;-72
2022/09/10 00:09:22;;;;;;;0.57;0.57;;;;;;;;;;5100614;28;20528;-72
2022/09/10 00:11:50;;;;;;;0.43;0.43;;;;;;;;;;5100467;28;20204;-72
2022/09/10 00:14:19;;;;;;;0.68;0.50;;;;;;;;;;5100275;28;20502;-72
2022/09/10 00:16:46;;;;;;;0.75;0.60;;;;;;;;;;5100360;28;20199;-72
2022/09/10 00:19:13;;;;;;;0.90;0.60;;;;;;;;;;5100219;28;20227;-72
2022/09/10 00:21:43;;;;;;;0.55;0.50;;;;;;;;;;5100368;28;20218;-72
2022/09/10 00:24:10;;;;;;;1.45;0.57;;;;;;;;;;5100625;28;20203;-72
2022/09/10 00:26:38;;;;;;;0.70;0.63;;;;;;;;;;5100212;28;20215;-72
2022/09/10 00:29:06;;;;;;;0.57;0.52;;;;;;;;;;5099902;28;20199;-72
2022/09/10 00:31:34;;;;;;;0.68;0.60;;;;;;;;;;5100015;28;20215;-72
2022/09/10 00:34:02;;;;;;;1.08;0.65;;;;;;;;;;5099824;28;20572;-73
2022/09/10 00:36:31;;;;;;;1.05;0.60;;;;;;;;;;5099679;28;20223;-73
2022/09/10 00:39:02;;;;;;;1.15;0.50;;;;;;;;;;5099988;28;20224;-73
2022/09/10 00:41:30;;;;;;;1.52;0.88;;;;;;;;;;5099432;28;20203;-73
2022/09/10 00:43:58;;;;;;;0.82;0.60;;;;;;;;;;5099577;28;20215;-73
2022/09/10 00:46:28;;;;;;;0.70;0.70;;;;;;;;;;5099670;28;20208;-73
2022/09/10 00:48:57;;;;;;;0.82;0.60;;;;;;;;;;5099193;28;20207;-73
2022/09/10 00:51:26;;;;;;;0.70;0.70;;;;;;;;;;5099248;28;20211;-73
2022/09/10 00:53:53;;;;;;;1.77;0.60;;;;;;;;;;5099428;28;20269;-73
2022/09/10 00:56:22;;;;;;;0.45;0.45;;;;;;;;;;5099821;28;20211;-73
2022/09/10 00:58:49;;;;;;;0.63;0.40;;;;;;;;;;5082126;28;20204;-73
2022/09/10 01:01:18;;;;;;;0.80;0.60;;;;;;;;;;5079000;28;20219;-73
2022/09/10 01:03:45;;;;;;;0.55;0.43;;;;;;;;;;5079071;28;20266;-73
2022/09/10 01:06:13;;;;;;;0.75;0.50;;;;;;;;;;5079223;28;20219;-73
2022/09/10 01:08:40;;;;;;;1.15;0.55;;;;;;;;;;5078840;28;20204;-73
2022/09/10 01:11:12;;;;;;;0.60;0.50;;;;;;;;;;5078739;28;20219;-73
2022/09/10 01:13:49;;;;;;;0.50;0.50;;;;;;;;;;5079018;28;20204;-73
2022/09/10 01:16:19;;;;;;;0.40;0.40;;;;;;;;;;5078695;28;20207;-73
2022/09/10 01:18:51;;;;;;;0.75;0.50;;;;;;;;;;5078660;28;20224;-73
2022/09/10 01:21:23;;;;;;;1.02;0.52;;;;;;;;;;5078747;28;20475;-73
2022/09/10 01:24:00;;;;;;;0.52;0.50;;;;;;;;;;5079131;28;20204;-73
2022/09/10 01:26:35;;;;;;;1.00;0.47;;;;;;;;;;5094619;28;20204;-73
2022/09/10 01:29:08;;;;;;;1.77;0.50;;;;;;;;;;5098773;28;20284;-73
2022/09/10 01:31:40;;;;;;;0.50;0.50;;;;;;;;;;5098737;28;20203;-73
2022/09/10 01:34:11;;;;;;;1.48;0.55;;;;;;;;;;5098308;28;20211;-73
2022/09/10 01:36:40;;;;;;;0.55;0.55;;;;;;;;;;5098226;28;20215;-73
2022/09/10 01:39:08;;;;;;;0.50;0.50;;;;;;;;;;5097744;28;20231;-73
2022/09/10 01:41:35;;;;;;;0.40;0.40;;;;;;;;;;5098083;28;20195;-73
2022/09/10 01:44:10;;;;;;;0.45;0.40;;;;;;;;;;5097798;28;20571;-73
2022/09/10 01:46:40;;;;;;;0.90;0.50;;;;;;;;;;5097574;28;20480;-73
2022/09/10 01:49:14;;;;;;;1.05;0.50;;;;;;;;;;5098172;28;20203;-72
2022/09/10 01:51:51;;;;;;;0.40;0.40;;;;;;;;;;5098009;28;20215;-72
2022/09/10 01:54:27;;;;;;;0.50;0.47;;;;;;;;;;5077725;28;20204;-73
2022/09/10 01:56:59;;;;;;;1.23;0.50;;;;;;;;;;5077726;28;20299;-73
2022/09/10 01:59:34;;;;;;;0.93;0.40;;;;;;;;;;5077327;28;20709;-73
2022/09/10 02:02:04;;;;;;;0.52;0.50;;;;;;;;;;5077611;28;20540;-73
2022/09/10 02:04:32;;;;;;;0.50;0.50;;;;;;;;;;5078627;28;20306;-73
2022/09/10 02:07:00;;;;;;;0.68;0.50;;;;;;;;;;5077861;28;20204;-73
2022/09/10 02:09:28;;;;;;;0.52;0.50;;;;;;;;;;5077416;28;20389;-73
2022/09/10 02:11:56;;;;;;;0.45;0.45;;;;;;;;;;5078911;28;20205;-72
2022/09/10 02:14:23;;;;;;;0.65;0.50;;;;;;;;;;5076794;28;20588;-72
2022/09/10 02:16:54;;;;;;;0.75;0.60;;;;;;;;;;5077748;28;20212;-72
2022/09/10 02:19:21;;;;;;;0.60;0.40;;;;;;;;;;5076887;28;20242;-72
2022/09/10 02:21:49;;;;;;;1.05;0.50;;;;;;;;;;5077713;28;20216;-72
2022/09/10 02:24:17;;;;;;;0.90;0.70;;;;;;;;;;5096833;28;20602;-72
2022/09/10 02:26:46;;;;;;;0.60;0.50;;;;;;;;;;5097971;28;20203;-72
2022/09/10 02:29:14;;;;;;;0.50;0.50;;;;;;;;;;5097227;28;20231;-72
2022/09/10 02:31:42;;;;;;;0.50;0.45;;;;;;;;;;5098102;28;20504;-72
2022/09/10 02:34:11;;;;;;;0.63;0.50;;;;;;;;;;5098150;28;20207;-73
2022/09/10 02:36:39;;;;;;;0.60;0.57;;;;;;;;;;5097916;28;20203;-73
2022/09/10 02:39:06;;;;;;;0.52;0.50;;;;;;;;;;5098058;28;20583;-73
2022/09/10 02:41:35;;;;;;;0.60;0.60;;;;;;;;;;5097747;28;20203;-72
2022/09/10 02:44:03;;;;;;;0.60;0.60;;;;;;;;;;5097387;28;20278;-72
2022/09/10 02:46:30;;;;;;;0.50;0.50;;;;;;;;;;5097765;28;20203;-73
2022/09/10 02:48:58;;;;;;;0.30;0.30;;;;;;;;;;5077328;28;20215;-73
2022/09/10 02:51:27;;;;;;;0.82;0.50;;;;;;;;;;5077552;28;20569;-73
2022/09/10 02:53:55;;;;;;;0.98;0.50;;;;;;;;;;5058349;28;20236;-73
2022/09/10 02:56:22;;;;;;;1.40;0.50;;;;;;;;;;5057361;28;20278;-73
2022/09/10 02:58:50;;;;;;;0.88;0.40;;;;;;;;;;5057914;28;20235;-72
2022/09/10 03:01:19;;;;;;;0.93;0.50;;;;;;;;;;5057379;28;20251;-72
2022/09/10 03:03:50;;;;;;;0.60;0.60;;;;;;;;;;5057254;28;20212;-72
2022/09/10 03:06:17;;;;;;;0.70;0.50;;;;;;;;;;5057242;28;20204;-72
2022/09/10 03:08:46;;;;;;;0.57;0.57;;;;;;;;;;5057313;28;20205;-72
2022/09/10 03:11:15;;;;;;;0.65;0.50;;;;;;;;;;5057189;28;20208;-72
2022/09/10 03:13:44;;;;;;;0.50;0.47;;;;;;;;;;5064004;28;20677;-72
2022/09/10 03:16:12;;;;;;;0.85;0.60;;;;;;;;;;5076815;28;20215;-72
2022/09/10 03:18:40;;;;;;;0.40;0.40;;;;;;;;;;5077054;28;20204;-72
2022/09/10 03:21:11;;;;;;;0.60;0.40;;;;;;;;;;5077004;28;20228;-72
2022/09/10 03:23:40;;;;;;;1.17;0.60;;;;;;;;;;5076813;28;20547;-72
2022/09/10 03:26:09;;;;;;;0.50;0.50;;;;;;;;;;5076904;28;20265;-72
2022/09/10 03:28:37;;;;;;;0.60;0.50;;;;;;;;;;5076627;28;20676;-73
2022/09/10 03:31:04;;;;;;;0.40;0.40;;;;;;;;;;5078727;28;20227;-73
2022/09/10 03:33:32;;;;;;;0.95;0.50;;;;;;;;;;5081107;28;20208;-72
2022/09/10 03:36:00;;;;;;;0.50;0.50;;;;;;;;;;5080826;28;20204;-72
2022/09/10 03:38:28;;;;;;;0.73;0.50;;;;;;;;;;5080774;28;20278;-72
2022/09/10 03:40:55;;;;;;;0.40;0.40;;;;;;;;;;5076550;28;20225;-72
2022/09/10 03:43:24;;;;;;;0.50;0.50;;;;;;;;;;5060233;28;20240;-72
2022/09/10 03:45:52;;;;;;;0.60;0.60;;;;;;;;;;5060488;28;20214;-72
2022/09/10 03:48:20;;;;;;;0.50;0.50;;;;;;;;;;5060770;28;20240;-72
2022/09/10 03:50:48;;;;;;;0.40;0.40;;;;;;;;;;5060526;28;20714;-72
2022/09/10 03:53:16;;;;;;;0.52;0.50;;;;;;;;;;5060105;28;20231;-72
2022/09/10 03:55:44;;;;;;;0.95;0.55;;;;;;;;;;5060358;28;20209;-73
2022/09/10 03:58:11;;;;;;;0.70;0.50;;;;;;;;;;5059760;28;20216;-72
2022/09/10 04:00:41;;;;;;;0.80;0.60;;;;;;;;;;5060117;28;20236;-72
2022/09/10 04:03:09;;;;;;;0.63;0.50;;;;;;;;;;5059826;28;20571;-72
2022/09/10 04:05:39;;;;;;;0.55;0.43;;;;;;;;;;5060017;28;20589;-72
2022/09/10 04:08:08;;;;;;;0.60;0.45;;;;;;;;;;5061650;28;20205;-72
2022/09/10 04:10:36;;;;;;;0.50;0.50;;;;;;;;;;5079733;28;20200;-72
2022/09/10 04:13:03;;;;;;;0.73;0.60;;;;;;;;;;5080353;28;20274;-72
2022/09/10 04:15:31;;;;;;;0.60;0.40;;;;;;;;;;5080259;28;20204;-72
2022/09/10 04:18:00;;;;;;;0.40;0.40;;;;;;;;;;5080162;28;20630;-72
2022/09/10 04:20:27;;;;;;;0.50;0.50;;;;;;;;;;5079463;28;20500;-72
2022/09/10 04:22:56;;;;;;;0.40;0.40;;;;;;;;;;5071809;28;20208;-72
2022/09/10 04:25:23;;;;;;;0.30;0.30;;;;;;;;;;5099561;28;20239;-72
2022/09/10 04:27:51;;;;;;;0.43;0.43;;;;;;;;;;5099739;28;20657;-72
2022/09/10 04:30:19;;;;;;;0.52;0.50;;;;;;;;;;5100044;28;20211;-72
2022/09/10 04:32:46;;;;;;;0.75;0.55;;;;;;;;;;5100084;28;20268;-72
2022/09/10 04:35:17;;;;;;;0.77;0.50;;;;;;;;;;5099820;28;20211;-72
2022/09/10 04:37:45;;;;;;;0.43;0.40;;;;;;;;;;5079579;28;20309;-72
2022/09/10 04:40:13;;;;;;;0.50;0.50;;;;;;;;;;5079063;28;20743;-72
2022/09/10 04:42:40;;;;;;;0.50;0.50;;;;;;;;;;5078458;28;20211;-72
2022/09/10 04:45:08;;;;;;;0.40;0.40;;;;;;;;;;5078735;28;20493;-72
2022/09/10 04:47:36;;;;;;;1.05;0.55;;;;;;;;;;5078634;28;20240;-72
2022/09/10 04:50:03;;;;;;;0.65;0.40;;;;;;;;;;5078756;28;20220;-72
2022/09/10 04:52:32;;;;;;;0.60;0.60;;;;;;;;;;5078401;28;20211;-72
2022/09/10 04:54:59;;;;;;;0.77;0.60;;;;;;;;;;5078693;28;20223;-72
2022/09/10 04:57:27;;;;;;;0.40;0.40;;;;;;;;;;5078422;28;20631;-72
2022/09/10 04:59:55;;;;;;;0.60;0.50;;;;;;;;;;5077808;28;20212;-72
2022/09/10 05:02:23;;;;;;;0.73;0.40;;;;;;;;;;5078856;28;20208;-72
2022/09/10 05:04:50;;;;;;;0.80;0.50;;;;;;;;;;5095314;28;20199;-72
2022/09/10 05:07:18;;;;;;;0.50;0.50;;;;;;;;;;5098704;28;20214;-72
2022/09/10 05:09:46;;;;;;;0.60;0.60;;;;;;;;;;5098650;28;20219;-72
2022/09/10 05:12:14;;;;;;;0.98;0.40;;;;;;;;;;5098858;28;20203;-72
2022/09/10 05:14:41;;;;;;;0.63;0.60;;;;;;;;;;5098628;28;20482;-72
2022/09/10 05:17:08;;;;;;;0.40;0.40;;;;;;;;;;5099756;28;20211;-72
2022/09/10 05:19:36;;;;;;;1.48;0.60;;;;;;;;;;5099244;28;20512;-72
2022/09/10 05:22:03;;;;;;;1.10;0.40;;;;;;;;;;5098042;28;20627;-72
2022/09/10 05:24:33;;;;;;;0.45;0.40;;;;;;;;;;5099246;28;20282;-72
2022/09/10 05:27:02;;;;;;;0.57;0.40;;;;;;;;;;5098861;28;20203;-72
2022/09/10 05:29:29;;;;;;;0.93;0.50;;;;;;;;;;5098866;28;20204;-72
2022/09/10 05:31:56;;;;;;;1.10;0.40;;;;;;;;;;5082958;28;20219;-72
2022/09/10 05:34:24;;;;;;;0.98;0.50;;;;;;;;;;5078157;28;20212;-72
2022/09/10 05:36:52;;;;;;;0.40;0.40;;;;;;;;;;5078082;28;20204;-72
2022/09/10 05:39:19;;;;;;;0.50;0.50;;;;;;;;;;5078281;28;20204;-72
2022/09/10 05:41:46;;;;;;;0.43;0.43;;;;;;;;;;5078388;28;20573;-73
2022/09/10 05:44:16;;;;;;;0.45;0.40;;;;;;;;;;5078578;28;20231;-73
2022/09/10 05:46:43;;;;;;;0.77;0.38;;;;;;;;;;5079109;28;20573;-74
2022/09/10 05:49:11;;;;;;;0.73;0.50;;;;;;;;;;5079095;28;20204;-74
2022/09/10 05:51:39;;;;;;;0.60;0.60;;;;;;;;;;5078045;28;20207;-73
2022/09/10 05:54:07;;;;;;;0.80;0.40;;;;;;;;;;5078153;28;20204;-73
2022/09/10 05:56:34;;;;;;;0.40;0.40;;;;;;;;;;5077483;28;20213;-73
2022/09/10 05:59:02;;;;;;;0.90;0.50;;;;;;;;;;5090687;28;20200;-73
2022/09/10 06:01:32;;;;;;;0.80;0.50;;;;;;;;;;5097709;28;20254;-73
2022/09/10 06:03:59;;;;;;;1.15;0.50;;;;;;;;;;5097762;28;20204;-73
2022/09/10 06:06:27;;;;;;;0.50;0.47;;;;;;;;;;5097282;28;20210;-73
2022/09/10 06:08:54;;;;;;;0.40;0.40;;;;;;;;;;5097377;28;20204;-73
2022/09/10 06:11:22;;;;;;;0.50;0.50;;;;;;;;;;5096576;28;20208;-73
2022/09/10 06:13:49;;;;;;;0.50;0.50;;;;;;;;;;5096912;28;20207;-73
2022/09/10 06:16:17;;;;;;;0.93;0.50;;;;;;;;;;5096994;28;20211;-73
2022/09/10 06:18:46;;;;;;;0.82;0.50;;;;;;;;;;5097366;28;20211;-73
2022/09/10 06:21:14;;;;;;;1.83;0.50;;;;;;;;;;5097045;28;20219;-73
2022/09/10 06:23:42;;;;;;;0.43;0.40;;;;;;;;;;5096992;28;20196;-73
2022/09/10 06:26:11;;;;;;;1.15;0.40;;;;;;;;;;5083460;28;20204;-73
2022/09/10 06:28:39;;;;;;;0.60;0.50;;;;;;;;;;5083641;28;20210;-72
2022/09/10 06:31:07;;;;;;;0.40;0.40;;;;;;;;;;5088029;28;20193;-73
2022/09/10 06:33:34;;;;;;;0.60;0.50;;;;;;;;;;5076328;28;20208;-73
2022/09/10 06:36:03;;;;;;;0.50;0.40;;;;;;;;;;5077217;28;20222;-73
2022/09/10 06:38:32;;;;;;;0.50;0.50;;;;;;;;;;5076693;28;20212;-73
2022/09/10 06:40:59;;;;;;;0.65;0.57;;;;;;;;;;5076743;28;20232;-73
2022/09/10 06:43:27;;;;;;;0.65;0.40;;;;;;;;;;5077136;28;20505;-73
2022/09/10 06:45:55;;;;;;;0.50;0.40;;;;;;;;;;5076738;28;20208;-73
2022/09/10 06:48:26;;;;;;;1.17;0.50;;;;;;;;;;5076085;28;20252;-73
2022/09/10 06:50:54;;;;;;;0.70;0.45;;;;;;;;;;5076461;28;20588;-73
2022/09/10 06:53:23;;;;;;;0.40;0.40;;;;;;;;;;5086777;28;20211;-73
2022/09/10 06:55:51;;;;;;;0.50;0.50;;;;;;;;;;5096697;28;20231;-73
2022/09/10 06:58:20;;;;;;;1.05;0.63;;;;;;;;;;5096176;28;20203;-73
2022/09/10 07:00:48;;;;;;;0.75;0.50;;;;;;;;;;5096374;28;20204;-73
2022/09/10 07:03:19;;;;;;;1.60;0.52;;;;;;;;;;5095986;28;20212;-73
2022/09/10 07:05:53;;;;;;;1.30;0.60;;;;;;;;;;5101201;28;20234;-73
2022/09/10 07:08:24;;;;;;;0.50;0.50;;;;;;;;;;5103678;28;20210;-73
2022/09/10 07:10:51;;;;;;;1.00;0.40;;;;;;;;;;5103461;28;20575;-73
2022/09/10 07:13:19;;;;;;;0.60;0.55;;;;;;;;;;5103301;28;20207;-73
2022/09/10 07:15:48;;;;;;;0.50;0.50;;;;;;;;;;5102482;28;20231;-71
2022/09/10 07:18:15;;;;;;;0.85;0.60;;;;;;;;;;5102885;28;20203;-71
2022/09/10 07:20:42;;;;;;;0.52;0.40;;;;;;;;;;5094154;28;20200;-71
2022/09/10 07:23:10;;;;;;;0.52;0.50;;;;;;;;;;5082663;28;20576;-71
2022/09/10 07:25:39;;;;;;;0.90;0.60;;;;;;;;;;5082413;28;20204;-71
2022/09/10 07:28:11;;;;;;;0.73;0.52;;;;;;;;;;5082507;28;20204;-71
2022/09/10 07:30:39;;;;;;;1.17;0.60;;;;;;;;;;5083314;28;20667;-71
2022/09/10 07:33:07;;;;;;;1.08;0.60;;;;;;;;;;5082361;28;20212;-71
2022/09/10 07:35:35;;;;;;;0.52;0.52;;;;;;;;;;5082222;28;20487;-71
2022/09/10 07:38:02;;;;;;;0.40;0.40;;;;;;;;;;5083091;28;20204;-71
2022/09/10 07:40:30;;;;;;;0.85;0.60;;;;;;;;;;5094401;28;20229;-71
2022/09/10 07:43:00;;;;;;;0.65;0.60;;;;;;;;;;5082193;28;20228;-71
2022/09/10 07:45:29;;;;;;;0.80;0.60;;;;;;;;;;5090457;28;20203;-71
2022/09/10 07:47:56;;;;;;;0.95;0.50;;;;;;;;;;5089883;28;20228;-71
2022/09/10 07:50:23;;;;;;;0.70;0.55;;;;;;;;;;5082134;28;20599;-71
2022/09/10 07:52:51;;;;;;;0.93;0.60;;;;;;;;;;5081966;28;20200;-71
2022/09/10 07:55:19;;;;;;;1.02;0.50;;;;;;;;;;5080721;28;20208;-71
2022/09/10 07:57:47;;;;;;;0.88;0.60;;;;;;;;;;5081093;28;20200;-71
2022/09/10 08:00:17;;;;;;;0.57;0.57;;;;;;;;;;5081121;28;20236;-71
2022/09/10 08:02:45;;;;;;;0.63;0.60;;;;;;;;;;5080523;28;20234;-71
2022/09/10 08:05:13;;;;;;;0.95;0.55;;;;;;;;;;5080416;28;20215;-71
2022/09/10 08:07:41;;;;;;;1.00;0.65;;;;;;;;;;5080769;28;20239;-71
2022/09/10 08:10:09;;;;;;;0.93;0.50;;;;;;;;;;5080380;28;20721;-71
2022/09/10 08:12:37;;;;;;;0.60;0.60;;;;;;;;;;5080423;28;20196;-71
2022/09/10 08:15:04;;;;;;;0.70;0.60;;;;;;;;;;5081167;28;20200;-71
2022/09/10 08:17:35;;;;;;;0.55;0.50;;;;;;;;;;5077447;28;20654;-71
2022/09/10 08:20:03;;;;;;;0.70;0.50;;;;;;;;;;5084012;28;20235;-71
2022/09/10 08:22:30;;;;;;;1.17;0.65;;;;;;;;;;5095845;28;20292;-71
2022/09/10 08:24:58;;;;;;;0.88;0.50;;;;;;;;;;5085022;28;20262;-71
2022/09/10 08:27:25;;;;;;;0.77;0.60;;;;;;;;;;5081690;28;20200;-72
2022/09/10 08:29:53;;;;;;;1.30;0.50;;;;;;;;;;5077744;28;20204;-72
2022/09/10 08:32:21;;;;;;;1.23;0.70;;;;;;;;;;5077340;28;20200;-71
2022/09/10 08:34:51;;;;;;;0.70;0.60;;;;;;;;;;5085930;28;20229;-71
2022/09/10 08:37:18;;;;;;;0.82;0.70;;;;;;;;;;5097830;28;20522;-71
2022/09/10 08:39:45;;;;;;;0.70;0.60;;;;;;;;;;5097742;28;20205;-71
2022/09/10 08:42:17;;;;;;;0.68;0.63;;;;;;;;;;5098551;28;20258;-71
2022/09/10 08:44:48;;;;;;;0.93;0.63;;;;;;;;;;5098130;28;20593;-71
2022/09/10 08:47:22;;;;;;;0.80;0.60;;;;;;;;;;5097555;28;20234;-71
2022/09/10 08:49:52;;;;;;;0.77;0.60;;;;;;;;;;5098267;28;20233;-71
2022/09/10 08:52:21;;;;;;;0.60;0.50;;;;;;;;;;5098095;28;20647;-71
2022/09/10 08:54:56;;;;;;;0.70;0.70;;;;;;;;;;5097810;28;20207;-71
2022/09/10 08:57:25;;;;;;;0.63;0.60;;;;;;;;;;5097332;28;20211;-71
2022/09/10 08:59:54;;;;;;;1.27;0.70;;;;;;;;;;5097126;28;20273;-71
2022/09/10 09:02:23;;;;;;;0.70;0.52;;;;;;;;;;5087918;28;20220;-71
2022/09/10 09:04:57;;;;;;;0.85;0.60;;;;;;;;;;5076429;28;20197;-71
2022/09/10 09:07:25;;;;;;;0.60;0.60;;;;;;;;;;5076991;28;20204;-71
2022/09/10 09:09:53;;;;;;;0.68;0.68;;;;;;;;;;5076065;28;20206;-71
2022/09/10 09:12:27;;;;;;;1.02;0.73;;;;;;;;;;5076667;28;20634;-71
2022/09/10 09:15:00;;;;;;;1.50;0.60;;;;;;;;;;5076539;28;20222;-71
2022/09/10 09:17:36;;;;;;;1.13;0.80;;;;;;;;;;5076421;28;20208;-72
2022/09/10 09:20:10;;;;;;;0.70;0.70;;;;;;;;;;5075941;28;20226;-71
2022/09/10 09:22:42;;;;;;;0.75;0.60;;;;;;;;;;5076409;28;20285;-71
2022/09/10 09:25:14;;;;;;;1.85;0.70;;;;;;;;;;5076617;28;20205;-72
2022/09/10 09:27:42;;;;;;;1.05;0.70;;;;;;;;;;5075958;28;20273;-71
2022/09/10 09:30:16;;;;;;;1.52;0.70;;;;;;;;;;5086624;28;20553;-71
2022/09/10 09:32:44;;;;;;;0.93;0.60;;;;;;;;;;5095707;28;20199;-71
2022/09/10 09:35:22;;;;;;;0.90;0.80;;;;;;;;;;5095929;28;20565;-71
2022/09/10 09:37:51;;;;;;;0.77;0.60;;;;;;;;;;5096437;28;20642;-71
2022/09/10 09:40:23;;;;;;;1.77;0.70;;;;;;;;;;5096131;28;20208;-71
2022/09/10 09:42:54;;;;;;;0.60;0.60;;;;;;;;;;5096587;28;20231;-71
2022/09/10 09:45:24;;;;;;;0.70;0.70;;;;;;;;;;5096357;28;20219;-71
2022/09/10 09:47:53;;;;;;;1.33;0.80;;;;;;;;;;5095284;28;20228;-71
2022/09/10 09:50:22;;;;;;;0.95;0.63;;;;;;;;;;5096600;28;20541;-71
2022/09/10 09:52:52;;;;;;;1.35;0.80;;;;;;;;;;5095541;28;20234;-71
2022/09/10 09:55:25;;;;;;;0.75;0.75;;;;;;;;;;5094964;28;20211;-71
2022/09/10 09:58:13;;;;;;;0.80;0.80;;;;;;;;;;5081994;28;20553;-71
2022/09/10 10:00:41;;;;;;;1.38;0.90;;;;;;;;;;5075837;28;20239;-71
2022/09/10 10:03:15;;;;;;;0.77;0.77;;;;;;;;;;5075760;28;20227;-71
2022/09/10 10:05:43;;;;;;;0.75;0.75;;;;;;;;;;5075566;28;20200;-71
2022/09/10 10:08:27;;;;;;;0.60;0.52;;;;;;;;;;5074777;28;20208;-71
2022/09/10 10:10:55;;;;;;;0.80;0.80;;;;;;;;;;5075186;28;20251;-71
2022/09/10 10:13:22;;;;;;;0.68;0.63;;;;;;;;;;5075716;28;20631;-71
2022/09/10 10:15:50;;;;;;;0.70;0.70;;;;;;;;;;5075199;28;20215;-71
2022/09/10 10:18:33;;;;;;;0.60;0.60;;;;;;;;;;5075256;28;20204;-71
2022/09/10 10:21:16;;;;;;;0.65;0.65;;;;;;;;;;5074809;28;20204;-71
2022/09/10 10:23:43;;;;;;;0.63;0.60;;;;;;;;;;5075996;28;20224;-71
2022/09/10 10:26:19;;;;;;;1.05;0.60;;;;;;;;;;5094256;28;20203;-71
2022/09/10 10:28:47;;;;;;;0.75;0.70;;;;;;;;;;5093651;28;20298;-71
2022/09/10 10:31:15;;;;;;;0.50;0.50;;;;;;;;;;5094645;28;20211;-71
2022/09/10 10:33:48;;;;;;;0.82;0.77;;;;;;;;;;5095539;28;20211;-71
2022/09/10 10:36:19;;;;;;;0.93;0.80;;;;;;;;;;5094964;28;20204;-71
2022/09/10 10:38:49;;;;;;;0.70;0.70;;;;;;;;;;5095129;28;20229;-71
2022/09/10 10:41:40;;;;;;;1.20;0.60;;;;;;;;;;5093578;28;20207;-71
2022/09/10 10:44:16;;;;;;;0.73;0.70;;;;;;;;;;5094031;28;20212;-70
2022/09/10 10:46:48;;;;;;;0.93;0.70;;;;;;;;;;5094475;28;20203;-71
2022/09/10 10:49:24;;;;;;;0.57;0.57;;;;;;;;;;5094951;28;20210;-71
2022/09/10 10:52:00;;;;;;;0.98;0.70;;;;;;;;;;5088025;28;20667;-72
2022/09/10 10:54:36;;;;;;;1.63;0.73;;;;;;;;;;5072699;28;20211;-71
2022/09/10 10:57:08;;;;;;;0.90;0.80;;;;;;;;;;5074242;28;20266;-71
2022/09/10 10:59:45;;;;;;;1.23;0.60;;;;;;;;;;5074356;28;20196;-71
2022/09/10 11:02:15;;;;;;;0.98;0.75;;;;;;;;;;5074276;28;20792;-71
2022/09/10 11:04:46;;;;;;;0.80;0.70;;;;;;;;;;5074568;28;20204;-71
2022/09/10 11:07:17;;;;;;;0.95;0.73;;;;;;;;;;5073285;28;20211;-71
2022/09/10 11:09:48;;;;;;;2.25;0.88;;;;;;;;;;5073185;28;20208;-71
2022/09/10 11:12:19;;;;;;;1.17;1.00;;;;;;;;;;5074014;28;20619;-71
2022/09/10 11:14:48;;;;;;;0.70;0.70;;;;;;;;;;5074733;28;20450;-71
2022/09/10 11:17:19;;;;;;;0.85;0.70;;;;;;;;;;5074859;28;20205;-71
2022/09/10 11:19:49;;;;;;;1.10;0.80;;;;;;;;;;5081373;28;20199;-71
2022/09/10 11:22:20;;;;;;;1.15;0.90;;;;;;;;;;5080530;28;20651;-71
2022/09/10 11:24:50;;;;;;;1.00;0.77;;;;;;;;;;5073600;28;20208;-71
2022/09/10 11:27:19;;;;;;;0.82;0.80;;;;;;;;;;5072691;28;20338;-71
2022/09/10 11:29:50;;;;;;;1.38;0.90;;;;;;;;;;5074093;28;20212;-71
2022/09/10 11:32:21;;;;;;;0.77;0.70;;;;;;;;;;5072830;28;20200;-71
2022/09/10 11:34:55;;;;;;;0.98;0.60;;;;;;;;;;5073585;28;20205;-71
2022/09/10 11:37:27;;;;;;;0.95;0.68;;;;;;;;;;5073658;28;20200;-71
2022/09/10 11:39:56;;;;;;;0.60;0.60;;;;;;;;;;5073362;28;20250;-71
2022/09/10 11:42:25;;;;;;;0.60;0.60;;;;;;;;;;5073658;28;20224;-71
2022/09/10 11:44:57;;;;;;;0.85;0.60;;;;;;;;;;5072984;28;20205;-71
2022/09/10 11:47:26;;;;;;;0.60;0.60;;;;;;;;;;5080204;28;20678;-71
2022/09/10 11:49:57;;;;;;;0.88;0.70;;;;;;;;;;5093045;28;20237;-71
2022/09/10 11:52:26;;;;;;;0.82;0.60;;;;;;;;;;5096709;28;20206;-71
2022/09/10 11:54:54;;;;;;;0.70;0.70;;;;;;;;;;5097516;28;20324;-71
2022/09/10 11:57:27;;;;;;;1.50;0.93;;;;;;;;;;5097443;28;20204;-71
2022/09/10 12:00:01;;;;;;;0.90;0.80;;;;;;;;;;5097261;28;20586;-72
2022/09/10 12:02:43;;;;;;;1.17;0.98;;;;;;;;;;5096711;28;20249;-71
2022/09/10 12:05:19;;;;;;;0.95;0.80;;;;;;;;;;5080874;28;20214;-71
2022/09/10 12:07:51;;;;;;;1.15;0.70;;;;;;;;;;5097346;28;20503;-71
2022/09/10 12:10:21;;;;;;;0.90;0.80;;;;;;;;;;5097599;28;20302;-71
2022/09/10 12:12:49;;;;;;;1.00;0.90;;;;;;;;;;5095731;28;20580;-71
2022/09/10 12:15:19;;;;;;;1.33;0.80;;;;;;;;;;5086185;28;20530;-71
2022/09/10 12:17:49;;;;;;;0.98;0.80;;;;;;;;;;5076347;28;20232;-71
2022/09/10 12:20:18;;;;;;;1.67;1.00;;;;;;;;;;5076822;28;20212;-71
2022/09/10 12:22:51;;;;;;;0.80;0.80;;;;;;;;;;5075609;28;20224;-71
2022/09/10 12:25:24;;;;;;;0.85;0.60;;;;;;;;;;5076389;28;20207;-71
2022/09/10 12:27:55;;;;;;;0.70;0.68;;;;;;;;;;5076186;28;20204;-71
2022/09/10 12:30:41;;;;;;;0.82;0.60;;;;;;;;;;5075544;28;20205;-71
2022/09/10 12:33:35;;;;;;;1.00;0.77;;;;;;;;;;5076631;28;20303;-71
2022/09/10 12:36:02;;;;;;;0.68;0.68;;;;;;;;;;5076143;28;20462;-71
2022/09/10 12:39:16;;;;;;;0.75;0.75;;;;;;;;;;5074974;28;20498;-71
2022/09/10 12:41:59;;;;;;;0.70;0.70;;;;;;;;;;5075467;28;20204;-71
2022/09/10 12:44:28;;;;;;;0.73;0.70;;;;;;;;;;5076147;28;20277;-71
2022/09/10 12:47:10;;;;;;;0.52;0.52;;;;;;;;;;5075858;28;20232;-71
2022/09/10 12:49:45;;;;;;;0.63;0.50;;;;;;;;;;5076168;28;20216;-71
2022/09/10 12:52:14;;;;;;;0.63;0.63;;;;;;;;;;5076125;28;20230;-71
2022/09/10 12:54:49;;;;;;;0.60;0.60;;;;;;;;;;5076360;28;20201;-73
2022/09/10 12:57:34;;;;;;;1.23;0.70;;;;;;;;;;5076367;28;20196;-71
2022/09/10 13:00:13;;;;;;;0.70;0.70;;;;;;;;;;5076691;28;20215;-71
2022/09/10 13:02:45;;;;;;;0.90;0.60;;;;;;;;;;5075152;28;20747;-71
2022/09/10 13:05:25;;;;;;;0.98;0.75;;;;;;;;;;5076114;28;20204;-71
2022/09/10 13:07:58;;;;;;;0.80;0.80;;;;;;;;;;5075742;28;20203;-71
2022/09/10 13:10:27;;;;;;;0.50;0.50;;;;;;;;;;5085061;28;20200;-71
2022/09/10 13:12:57;;;;;;;0.57;0.57;;;;;;;;;;5096277;28;20203;-71
2022/09/10 13:15:26;;;;;;;0.70;0.55;;;;;;;;;;5095508;28;20199;-71
2022/09/10 13:18:12;;;;;;;1.30;0.65;;;;;;;;;;5095542;28;20269;-71
2022/09/10 13:20:39;;;;;;;0.60;0.60;;;;;;;;;;5095950;28;20203;-71
2022/09/10 13:23:20;;;;;;;0.73;0.68;;;;;;;;;;5095762;28;20231;-71
2022/09/10 13:25:49;;;;;;;0.60;0.60;;;;;;;;;;5095614;28;20203;-71
2022/09/10 13:28:38;;;;;;;1.23;0.60;;;;;;;;;;5095218;28;20734;-71
2022/09/10 13:31:10;;;;;;;0.60;0.50;;;;;;;;;;5095198;28;20231;-71
2022/09/10 13:33:41;;;;;;;0.50;0.50;;;;;;;;;;5095686;28;20200;-71
2022/09/10 13:36:20;;;;;;;0.60;0.50;;;;;;;;;;5094909;28;20222;-71
2022/09/10 13:39:05;;;;;;;0.50;0.50;;;;;;;;;;5077480;28;20214;-71
2022/09/10 13:41:50;;;;;;;0.70;0.50;;;;;;;;;;5075112;28;20314;-71
2022/09/10 13:44:29;;;;;;;0.43;0.43;;;;;;;;;;5074796;28;20238;-71
2022/09/10 13:46:59;;;;;;;0.70;0.70;;;;;;;;;;5074302;28;20620;-71
2022/09/10 13:49:30;;;;;;;0.45;0.40;;;;;;;;;;5075292;28;20230;-71
2022/09/10 13:51:59;;;;;;;0.40;0.40;;;;;;;;;;5074976;28;20642;-71
2022/09/10 13:54:33;;;;;;;0.60;0.47;;;;;;;;;;5075406;28;20693;-71
2022/09/10 13:57:04;;;;;;;0.45;0.45;;;;;;;;;;5074774;28;20212;-71
2022/09/10 13:59:34;;;;;;;0.70;0.40;;;;;;;;;;5075208;28;20205;-71
2022/09/10 14:02:01;;;;;;;0.50;0.50;;;;;;;;;;5074073;28;20506;-71
2022/09/10 14:04:30;;;;;;;0.40;0.40;;;;;;;;;;5075344;28;20545;-71
2022/09/10 14:07:01;;;;;;;0.50;0.50;;;;;;;;;;5093759;28;20200;-71
2022/09/10 14:09:29;;;;;;;0.40;0.40;;;;;;;;;;5094439;28;20798;-71
2022/09/10 14:11:58;;;;;;;0.50;0.50;;;;;;;;;;5094356;28;20207;-71
2022/09/10 14:14:28;;;;;;;0.40;0.40;;;;;;;;;;5093672;28;20200;-71
2022/09/10 14:16:59;;;;;;;0.40;0.40;;;;;;;;;;5094964;28;20487;-71
2022/09/10 14:19:28;;;;;;;0.80;0.63;;;;;;;;;;5094119;28;20219;-71
2022/09/10 14:21:56;;;;;;;0.50;0.50;;;;;;;;;;5094102;28;20310;-71
2022/09/10 14:24:32;;;;;;;0.90;0.55;;;;;;;;;;5093404;28;20234;-71
2022/09/10 14:27:06;;;;;;;0.52;0.52;;;;;;;;;;5093588;28;20608;-71
2022/09/10 14:29:35;;;;;;;0.70;0.50;;;;;;;;;;5093815;28;20211;-71
2022/09/10 14:34:54;;;;;;;0.50;0.50;;;;;;;;;;5132245;27;20990;-73
2022/09/10 14:37:26;;;;;;;0.65;0.57;;;;;;;;;;5132696;27;20486;-73
2022/09/10 14:39:55;;;;;;;1.15;0.50;;;;;;;;;;5131075;27;20199;-73
2022/09/10 14:42:25;;;;;;;0.70;0.60;;;;;;;;;;5131241;27;20202;-73
2022/09/10 14:44:53;;;;;;;0.50;0.50;;;;;;;;;;5130494;27;20230;-72
2022/09/10 14:47:29;;;;;;;0.60;0.60;;;;;;;;;;5132256;27;20277;-72
2022/09/10 14:50:11;;;;;;;0.60;0.60;;;;;;;;;;5132309;27;20756;-72
2022/09/10 14:52:40;;;;;;;0.40;0.40;;;;;;;;;;5131455;28;20228;-72
2022/09/10 14:55:07;;;;;;;0.50;0.50;;;;;;;;;;5132341;27;20229;-73
2022/09/10 14:57:36;;;;;;;0.55;0.30;;;;;;;;;;5131238;27;20205;-72
2022/09/10 15:00:04;;;;;;;0.90;0.77;;;;;;;;;;5131856;27;20538;-72
2022/09/10 15:02:32;;;;;;;0.70;0.60;;;;;;;;;;5132102;27;20203;-73
2022/09/10 15:04:59;;;;;;;0.80;0.50;;;;;;;;;;5131701;27;20235;-72